Qinglong, China
Current Conditions -  °F | °C
As of 5:00 PM on Tuesday 21 Oct 2014 (Local Time) from ZBAA Reporting Station
Clear Clear  
Wind Chill: 55°   Ceiling: Unl
Heat Index: 55°   Visibility: 6mi
Dew Point: 27°   Wind: 4mph
Humidity: 33%   Direction: 140°SE
Pressure: 30.21"   Gusts: NA
Location:  40.4°N, 118.95°E
Report Text: ZBAA 210900Z 14002MPS CAVOK 13/M03 Q1023 NOSIG
Loading
Personal Weather Stations






























Interactive Weather Map
Tropical Storm Tracking
New forecast layout! Learn more

10-Day Weather Forecast

Advertisements
Track Severe Weather on mobile